sensor_id;sensor_type;location;lat;lon;timestamp;P1;durP1;ratioP1;P2;durP2;ratioP2
462;SDS011;218;51.902;9.542;2024-02-21T00:00:07;4.03;;;2.00;;
462;SDS011;218;51.902;9.542;2024-02-21T00:02:37;3.30;;;2.40;;
462;SDS011;218;51.902;9.542;2024-02-21T00:05:05;1.70;;;1.60;;
462;SDS011;218;51.902;9.542;2024-02-21T00:07:32;2.77;;;1.97;;
462;SDS011;218;51.902;9.542;2024-02-21T00:09:59;2.83;;;1.70;;
462;SDS011;218;51.902;9.542;2024-02-21T00:12:27;5.47;;;2.33;;
462;SDS011;218;51.902;9.542;2024-02-21T00:14:54;2.90;;;2.13;;
462;SDS011;218;51.902;9.542;2024-02-21T00:17:22;3.70;;;2.13;;
462;SDS011;218;51.902;9.542;2024-02-21T00:19:52;3.50;;;2.00;;
462;SDS011;218;51.902;9.542;2024-02-21T00:22:19;3.60;;;2.30;;
462;SDS011;218;51.902;9.542;2024-02-21T00:24:47;2.40;;;1.80;;
462;SDS011;218;51.902;9.542;2024-02-21T00:27:14;3.37;;;2.60;;
462;SDS011;218;51.902;9.542;2024-02-21T00:29:41;1.97;;;1.77;;
462;SDS011;218;51.902;9.542;2024-02-21T00:32:09;2.90;;;2.13;;
462;SDS011;218;51.902;9.542;2024-02-21T00:34:36;2.20;;;2.00;;
462;SDS011;218;51.902;9.542;2024-02-21T00:37:05;2.27;;;1.87;;
462;SDS011;218;51.902;9.542;2024-02-21T00:39:32;2.13;;;2.03;;
462;SDS011;218;51.902;9.542;2024-02-21T00:42:00;2.37;;;2.07;;
462;SDS011;218;51.902;9.542;2024-02-21T00:44:28;2.40;;;2.20;;
462;SDS011;218;51.902;9.542;2024-02-21T00:46:55;2.60;;;2.03;;
462;SDS011;218;51.902;9.542;2024-02-21T00:49:22;4.63;;;2.43;;
462;SDS011;218;51.902;9.542;2024-02-21T00:51:49;2.63;;;2.40;;
462;SDS011;218;51.902;9.542;2024-02-21T00:54:18;2.47;;;2.27;;
462;SDS011;218;51.902;9.542;2024-02-21T00:56:45;3.70;;;2.60;;
462;SDS011;218;51.902;9.542;2024-02-21T00:59:13;2.27;;;2.13;;
462;SDS011;218;51.902;9.542;2024-02-21T01:01:40;4.27;;;2.67;;
462;SDS011;218;51.902;9.542;2024-02-21T01:04:08;2.40;;;2.10;;
462;SDS011;218;51.902;9.542;2024-02-21T01:06:35;2.93;;;2.63;;
462;SDS011;218;51.902;9.542;2024-02-21T01:09:02;2.40;;;2.13;;
462;SDS011;218;51.902;9.542;2024-02-21T01:11:31;2.60;;;2.23;;
462;SDS011;218;51.902;9.542;2024-02-21T01:13:58;2.60;;;2.40;;
462;SDS011;218;51.902;9.542;2024-02-21T01:16:25;3.30;;;2.30;;
462;SDS011;218;51.902;9.542;2024-02-21T01:18:53;2.63;;;2.43;;
462;SDS011;218;51.902;9.542;2024-02-21T01:21:20;2.73;;;2.53;;
462;SDS011;218;51.902;9.542;2024-02-21T01:23:47;3.47;;;2.30;;
462;SDS011;218;51.902;9.542;2024-02-21T01:26:15;3.80;;;2.13;;
462;SDS011;218;51.902;9.542;2024-02-21T01:28:43;2.80;;;2.60;;
462;SDS011;218;51.902;9.542;2024-02-21T01:31:11;2.37;;;2.17;;
462;SDS011;218;51.902;9.542;2024-02-21T01:33:38;2.53;;;2.33;;
462;SDS011;218;51.902;9.542;2024-02-21T01:36:06;2.90;;;2.70;;
462;SDS011;218;51.902;9.542;2024-02-21T01:38:33;3.00;;;2.73;;
462;SDS011;218;51.902;9.542;2024-02-21T01:41:01;4.43;;;3.03;;
462;SDS011;218;51.902;9.542;2024-02-21T01:43:28;3.37;;;2.23;;
462;SDS011;218;51.902;9.542;2024-02-21T01:45:57;3.90;;;2.73;;
462;SDS011;218;51.902;9.542;2024-02-21T01:48:24;3.07;;;2.77;;
462;SDS011;218;51.902;9.542;2024-02-21T01:50:54;3.97;;;2.37;;
462;SDS011;218;51.902;9.542;2024-02-21T01:53:22;3.87;;;2.43;;
462;SDS011;218;51.902;9.542;2024-02-21T01:55:50;2.60;;;2.40;;
462;SDS011;218;51.902;9.542;2024-02-21T01:58:17;2.60;;;2.30;;
462;SDS011;218;51.902;9.542;2024-02-21T02:00:46;3.20;;;2.83;;
462;SDS011;218;51.902;9.542;2024-02-21T02:03:15;2.30;;;2.13;;
462;SDS011;218;51.902;9.542;2024-02-21T02:05:43;3.07;;;2.77;;
462;SDS011;218;51.902;9.542;2024-02-21T02:08:11;3.10;;;2.10;;
462;SDS011;218;51.902;9.542;2024-02-21T02:10:38;2.40;;;2.30;;
462;SDS011;218;51.902;9.542;2024-02-21T02:13:06;4.60;;;3.30;;
462;SDS011;218;51.902;9.542;2024-02-21T02:15:39;3.63;;;2.40;;
462;SDS011;218;51.902;9.542;2024-02-21T02:18:07;2.77;;;2.37;;
462;SDS011;218;51.902;9.542;2024-02-21T02:20:35;3.93;;;2.83;;
462;SDS011;218;51.902;9.542;2024-02-21T02:23:04;3.07;;;2.87;;
462;SDS011;218;51.902;9.542;2024-02-21T02:25:36;3.40;;;2.00;;
462;SDS011;218;51.902;9.542;2024-02-21T02:28:03;2.60;;;2.40;;
462;SDS011;218;51.902;9.542;2024-02-21T02:30:32;2.80;;;2.60;;
462;SDS011;218;51.902;9.542;2024-02-21T02:33:01;2.83;;;2.60;;
462;SDS011;218;51.902;9.542;2024-02-21T02:35:28;3.53;;;2.77;;
462;SDS011;218;51.902;9.542;2024-02-21T02:37:56;3.13;;;2.87;;
462;SDS011;218;51.902;9.542;2024-02-21T02:40:23;3.80;;;2.80;;
462;SDS011;218;51.902;9.542;2024-02-21T02:42:52;2.83;;;2.63;;
462;SDS011;218;51.902;9.542;2024-02-21T02:45:20;3.17;;;2.43;;
462;SDS011;218;51.902;9.542;2024-02-21T02:47:48;2.70;;;2.50;;
462;SDS011;218;51.902;9.542;2024-02-21T02:50:16;3.47;;;3.03;;
462;SDS011;218;51.902;9.542;2024-02-21T02:52:43;2.63;;;2.40;;
462;SDS011;218;51.902;9.542;2024-02-21T02:55:10;3.43;;;2.70;;
462;SDS011;218;51.902;9.542;2024-02-21T02:57:37;2.97;;;2.77;;
462;SDS011;218;51.902;9.542;2024-02-21T03:00:09;3.90;;;2.30;;
462;SDS011;218;51.902;9.542;2024-02-21T03:02:37;3.00;;;2.67;;
462;SDS011;218;51.902;9.542;2024-02-21T03:05:11;3.10;;;2.80;;
462;SDS011;218;51.902;9.542;2024-02-21T03:07:38;2.53;;;2.33;;
462;SDS011;218;51.902;9.542;2024-02-21T03:10:06;2.97;;;2.73;;
462;SDS011;218;51.902;9.542;2024-02-21T03:12:33;2.80;;;2.60;;
462;SDS011;218;51.902;9.542;2024-02-21T03:15:01;2.93;;;2.63;;
462;SDS011;218;51.902;9.542;2024-02-21T03:17:31;3.23;;;2.80;;
462;SDS011;218;51.902;9.542;2024-02-21T03:19:59;2.60;;;2.40;;
462;SDS011;218;51.902;9.542;2024-02-21T03:22:26;2.83;;;2.60;;
462;SDS011;218;51.902;9.542;2024-02-21T03:24:54;2.50;;;2.30;;
462;SDS011;218;51.902;9.542;2024-02-21T03:27:21;2.83;;;2.63;;
462;SDS011;218;51.902;9.542;2024-02-21T03:29:48;2.53;;;2.33;;
462;SDS011;218;51.902;9.542;2024-02-21T03:32:16;2.90;;;2.60;;
462;SDS011;218;51.902;9.542;2024-02-21T03:34:44;2.73;;;2.53;;
462;SDS011;218;51.902;9.542;2024-02-21T03:37:11;2.60;;;2.40;;
462;SDS011;218;51.902;9.542;2024-02-21T03:39:39;14.80;;;4.53;;
462;SDS011;218;51.902;9.542;2024-02-21T03:42:06;16.30;;;4.27;;
462;SDS011;218;51.902;9.542;2024-02-21T03:44:34;3.87;;;3.00;;
462;SDS011;218;51.902;9.542;2024-02-21T03:47:02;6.17;;;3.20;;
462;SDS011;218;51.902;9.542;2024-02-21T03:49:29;11.00;;;4.47;;
462;SDS011;218;51.902;9.542;2024-02-21T03:51:58;8.30;;;2.97;;
462;SDS011;218;51.902;9.542;2024-02-21T03:54:26;9.55;;;3.88;;
462;SDS011;218;51.902;9.542;2024-02-21T03:56:53;15.57;;;4.27;;
462;SDS011;218;51.902;9.542;2024-02-21T03:59:20;14.73;;;4.23;;
462;SDS011;218;51.902;9.542;2024-02-21T04:01:51;10.33;;;4.40;;
462;SDS011;218;51.902;9.542;2024-02-21T04:04:18;11.70;;;3.57;;
462;SDS011;218;51.902;9.542;2024-02-21T04:06:46;8.70;;;3.30;;
462;SDS011;218;51.902;9.542;2024-02-21T04:09:15;5.63;;;3.33;;
462;SDS011;218;51.902;9.542;2024-02-21T04:11:42;6.50;;;3.70;;
462;SDS011;218;51.902;9.542;2024-02-21T04:14:09;9.60;;;4.00;;
462;SDS011;218;51.902;9.542;2024-02-21T04:16:37;6.37;;;3.93;;
462;SDS011;218;51.902;9.542;2024-02-21T04:19:05;9.50;;;3.63;;
462;SDS011;218;51.902;9.542;2024-02-21T04:21:32;12.63;;;4.57;;
462;SDS011;218;51.902;9.542;2024-02-21T04:23:59;7.90;;;3.90;;
462;SDS011;218;51.902;9.542;2024-02-21T04:26:31;14.37;;;4.70;;
462;SDS011;218;51.902;9.542;2024-02-21T04:28:59;12.53;;;4.00;;
462;SDS011;218;51.902;9.542;2024-02-21T04:31:26;11.33;;;5.07;;
462;SDS011;218;51.902;9.542;2024-02-21T04:33:53;7.40;;;4.30;;
462;SDS011;218;51.902;9.542;2024-02-21T04:36:20;12.83;;;3.70;;
462;SDS011;218;51.902;9.542;2024-02-21T04:38:48;11.50;;;4.40;;
462;SDS011;218;51.902;9.542;2024-02-21T04:41:16;7.33;;;4.00;;
462;SDS011;218;51.902;9.542;2024-02-21T04:43:45;6.70;;;3.00;;
462;SDS011;218;51.902;9.542;2024-02-21T04:46:12;6.83;;;3.70;;
462;SDS011;218;51.902;9.542;2024-02-21T04:48:40;5.90;;;3.33;;
462;SDS011;218;51.902;9.542;2024-02-21T04:51:07;6.07;;;3.70;;
462;SDS011;218;51.902;9.542;2024-02-21T04:53:35;8.27;;;3.50;;
462;SDS011;218;51.902;9.542;2024-02-21T04:56:02;6.73;;;3.27;;
462;SDS011;218;51.902;9.542;2024-02-21T04:58:29;5.37;;;3.57;;
462;SDS011;218;51.902;9.542;2024-02-21T05:00:58;5.50;;;3.50;;
462;SDS011;218;51.902;9.542;2024-02-21T05:03:25;11.10;;;3.27;;
462;SDS011;218;51.902;9.542;2024-02-21T05:05:53;4.57;;;3.53;;
462;SDS011;218;51.902;9.542;2024-02-21T05:08:20;6.37;;;3.43;;
462;SDS011;218;51.902;9.542;2024-02-21T05:10:47;6.80;;;3.57;;
462;SDS011;218;51.902;9.542;2024-02-21T05:13:14;6.47;;;3.50;;
462;SDS011;218;51.902;9.542;2024-02-21T05:15:41;6.23;;;3.57;;
462;SDS011;218;51.902;9.542;2024-02-21T05:18:10;5.23;;;3.07;;
462;SDS011;218;51.902;9.542;2024-02-21T05:20:37;3.97;;;3.13;;
462;SDS011;218;51.902;9.542;2024-02-21T05:23:05;8.83;;;2.83;;
462;SDS011;218;51.902;9.542;2024-02-21T05:25:32;3.53;;;2.60;;
462;SDS011;218;51.902;9.542;2024-02-21T05:27:59;6.53;;;3.00;;
462;SDS011;218;51.902;9.542;2024-02-21T05:30:28;4.20;;;3.07;;
462;SDS011;218;51.902;9.542;2024-02-21T05:32:56;4.37;;;3.00;;
462;SDS011;218;51.902;9.542;2024-02-21T05:35:26;8.27;;;4.80;;
462;SDS011;218;51.902;9.542;2024-02-21T05:37:53;5.63;;;4.13;;
462;SDS011;218;51.902;9.542;2024-02-21T05:40:21;7.83;;;3.73;;
462;SDS011;218;51.902;9.542;2024-02-21T05:42:48;7.43;;;3.63;;
462;SDS011;218;51.902;9.542;2024-02-21T05:45:16;9.50;;;3.63;;
462;SDS011;218;51.902;9.542;2024-02-21T05:47:43;6.13;;;4.03;;
462;SDS011;218;51.902;9.542;2024-02-21T05:50:11;6.03;;;3.23;;
462;SDS011;218;51.902;9.542;2024-02-21T05:52:39;6.70;;;3.80;;
462;SDS011;218;51.902;9.542;2024-02-21T05:55:06;7.63;;;4.23;;
462;SDS011;218;51.902;9.542;2024-02-21T05:57:34;5.97;;;3.43;;
462;SDS011;218;51.902;9.542;2024-02-21T06:00:06;4.20;;;3.13;;
462;SDS011;218;51.902;9.542;2024-02-21T06:02:34;8.73;;;4.07;;
462;SDS011;218;51.902;9.542;2024-02-21T06:05:01;9.55;;;4.80;;
462;SDS011;218;51.902;9.542;2024-02-21T06:07:30;11.03;;;4.83;;
462;SDS011;218;51.902;9.542;2024-02-21T06:09:59;5.03;;;3.83;;
462;SDS011;218;51.902;9.542;2024-02-21T06:12:26;8.53;;;4.20;;
462;SDS011;218;51.902;9.542;2024-02-21T06:14:53;34.87;;;4.93;;
462;SDS011;218;51.902;9.542;2024-02-21T06:17:21;15.87;;;3.97;;
462;SDS011;218;51.902;9.542;2024-02-21T06:19:48;8.90;;;4.60;;
462;SDS011;218;51.902;9.542;2024-02-21T06:22:15;15.53;;;4.87;;
462;SDS011;218;51.902;9.542;2024-02-21T06:24:42;8.33;;;4.57;;
462;SDS011;218;51.902;9.542;2024-02-21T06:27:11;5.10;;;3.47;;
462;SDS011;218;51.902;9.542;2024-02-21T06:29:41;11.30;;;3.90;;
462;SDS011;218;51.902;9.542;2024-02-21T06:32:08;8.10;;;4.00;;
462;SDS011;218;51.902;9.542;2024-02-21T06:34:35;13.70;;;5.50;;
462;SDS011;218;51.902;9.542;2024-02-21T06:37:03;10.77;;;4.20;;
462;SDS011;218;51.902;9.542;2024-02-21T06:39:30;12.33;;;4.80;;
462;SDS011;218;51.902;9.542;2024-02-21T06:41:57;15.07;;;4.40;;
462;SDS011;218;51.902;9.542;2024-02-21T06:44:26;4.70;;;3.67;;
462;SDS011;218;51.902;9.542;2024-02-21T06:46:54;8.00;;;4.10;;
462;SDS011;218;51.902;9.542;2024-02-21T06:49:21;9.63;;;4.00;;
462;SDS011;218;51.902;9.542;2024-02-21T06:51:48;9.83;;;3.70;;
462;SDS011;218;51.902;9.542;2024-02-21T06:54:15;10.17;;;4.40;;
462;SDS011;218;51.902;9.542;2024-02-21T06:56:43;8.33;;;4.07;;
462;SDS011;218;51.902;9.542;2024-02-21T06:59:10;8.93;;;4.23;;
462;SDS011;218;51.902;9.542;2024-02-21T07:01:45;12.90;;;4.80;;
462;SDS011;218;51.902;9.542;2024-02-21T07:04:12;6.37;;;4.40;;
462;SDS011;218;51.902;9.542;2024-02-21T07:06:40;5.77;;;4.03;;
462;SDS011;218;51.902;9.542;2024-02-21T07:09:07;6.50;;;4.63;;
462;SDS011;218;51.902;9.542;2024-02-21T07:11:34;10.70;;;4.00;;
462;SDS011;218;51.902;9.542;2024-02-21T07:14:01;7.60;;;4.27;;
462;SDS011;218;51.902;9.542;2024-02-21T07:16:28;12.43;;;4.50;;
462;SDS011;218;51.902;9.542;2024-02-21T07:18:59;4.97;;;3.73;;
462;SDS011;218;51.902;9.542;2024-02-21T07:21:26;13.13;;;4.70;;
462;SDS011;218;51.902;9.542;2024-02-21T07:23:53;11.80;;;3.80;;
462;SDS011;218;51.902;9.542;2024-02-21T07:26:20;4.27;;;3.53;;
462;SDS011;218;51.902;9.542;2024-02-21T07:28:48;7.30;;;3.80;;
462;SDS011;218;51.902;9.542;2024-02-21T07:31:15;6.00;;;3.70;;
462;SDS011;218;51.902;9.542;2024-02-21T07:33:42;6.93;;;4.20;;
462;SDS011;218;51.902;9.542;2024-02-21T07:36:11;8.17;;;4.00;;
462;SDS011;218;51.902;9.542;2024-02-21T07:38:38;9.23;;;3.63;;
462;SDS011;218;51.902;9.542;2024-02-21T07:41:05;4.73;;;3.23;;
462;SDS011;218;51.902;9.542;2024-02-21T07:43:33;4.90;;;3.97;;
462;SDS011;218;51.902;9.542;2024-02-21T07:46:00;14.43;;;3.67;;
462;SDS011;218;51.902;9.542;2024-02-21T07:48:27;8.73;;;3.60;;
462;SDS011;218;51.902;9.542;2024-02-21T07:50:55;5.10;;;4.10;;
462;SDS011;218;51.902;9.542;2024-02-21T07:53:23;5.60;;;3.67;;
462;SDS011;218;51.902;9.542;2024-02-21T07:55:53;5.27;;;3.60;;
462;SDS011;218;51.902;9.542;2024-02-21T07:58:21;6.80;;;3.33;;
462;SDS011;218;51.902;9.542;2024-02-21T08:00:48;7.60;;;3.93;;
462;SDS011;218;51.902;9.542;2024-02-21T08:03:15;5.17;;;3.63;;
462;SDS011;218;51.902;9.542;2024-02-21T08:05:43;8.50;;;4.07;;
462;SDS011;218;51.902;9.542;2024-02-21T08:08:10;6.30;;;3.67;;
462;SDS011;218;51.902;9.542;2024-02-21T08:10:39;5.10;;;3.40;;
462;SDS011;218;51.902;9.542;2024-02-21T08:13:06;4.07;;;3.60;;
462;SDS011;218;51.902;9.542;2024-02-21T08:15:33;6.10;;;3.60;;
462;SDS011;218;51.902;9.542;2024-02-21T08:18:00;3.27;;;2.97;;
462;SDS011;218;51.902;9.542;2024-02-21T08:20:29;5.27;;;3.87;;
462;SDS011;218;51.902;9.542;2024-02-21T08:22:56;4.30;;;3.60;;
462;SDS011;218;51.902;9.542;2024-02-21T08:25:23;3.87;;;3.43;;
462;SDS011;218;51.902;9.542;2024-02-21T08:27:54;4.07;;;3.07;;
462;SDS011;218;51.902;9.542;2024-02-21T08:30:22;4.73;;;3.10;;
462;SDS011;218;51.902;9.542;2024-02-21T08:32:49;4.20;;;3.63;;
462;SDS011;218;51.902;9.542;2024-02-21T08:35:16;13.03;;;3.60;;
462;SDS011;218;51.902;9.542;2024-02-21T08:37:44;10.73;;;3.57;;
462;SDS011;218;51.902;9.542;2024-02-21T08:40:13;5.63;;;3.73;;
462;SDS011;218;51.902;9.542;2024-02-21T08:42:42;11.10;;;3.70;;
462;SDS011;218;51.902;9.542;2024-02-21T08:45:11;4.87;;;3.80;;
462;SDS011;218;51.902;9.542;2024-02-21T08:47:39;4.07;;;3.00;;
462;SDS011;218;51.902;9.542;2024-02-21T08:50:06;3.93;;;3.50;;
462;SDS011;218;51.902;9.542;2024-02-21T08:52:35;5.00;;;3.10;;
462;SDS011;218;51.902;9.542;2024-02-21T08:55:02;5.97;;;3.73;;
462;SDS011;218;51.902;9.542;2024-02-21T08:57:29;7.47;;;3.57;;
462;SDS011;218;51.902;9.542;2024-02-21T09:00:01;8.00;;;4.03;;
462;SDS011;218;51.902;9.542;2024-02-21T09:02:35;5.07;;;3.97;;
462;SDS011;218;51.902;9.542;2024-02-21T09:05:04;5.03;;;3.40;;
462;SDS011;218;51.902;9.542;2024-02-21T09:07:31;8.33;;;3.77;;
462;SDS011;218;51.902;9.542;2024-02-21T09:09:58;8.90;;;4.17;;
462;SDS011;218;51.902;9.542;2024-02-21T09:12:25;6.17;;;4.00;;
462;SDS011;218;51.902;9.542;2024-02-21T09:14:53;6.40;;;4.07;;
462;SDS011;218;51.902;9.542;2024-02-21T09:17:20;3.80;;;3.33;;
462;SDS011;218;51.902;9.542;2024-02-21T09:19:49;6.63;;;3.90;;
462;SDS011;218;51.902;9.542;2024-02-21T09:22:16;4.30;;;3.43;;
462;SDS011;218;51.902;9.542;2024-02-21T09:24:43;4.50;;;3.60;;
462;SDS011;218;51.902;9.542;2024-02-21T09:27:12;6.70;;;3.77;;
462;SDS011;218;51.902;9.542;2024-02-21T09:29:40;6.33;;;4.03;;
462;SDS011;218;51.902;9.542;2024-02-21T09:32:08;7.47;;;3.47;;
462;SDS011;218;51.902;9.542;2024-02-21T09:34:35;7.23;;;3.80;;
462;SDS011;218;51.902;9.542;2024-02-21T09:37:04;4.13;;;3.07;;
462;SDS011;218;51.902;9.542;2024-02-21T09:39:31;6.80;;;3.33;;
462;SDS011;218;51.902;9.542;2024-02-21T09:41:59;4.70;;;3.83;;
462;SDS011;218;51.902;9.542;2024-02-21T09:44:27;6.23;;;3.70;;
462;SDS011;218;51.902;9.542;2024-02-21T09:47:01;9.57;;;4.17;;
462;SDS011;218;51.902;9.542;2024-02-21T09:49:30;5.93;;;3.50;;
462;SDS011;218;51.902;9.542;2024-02-21T09:51:58;10.17;;;5.23;;
462;SDS011;218;51.902;9.542;2024-02-21T09:54:29;6.20;;;4.07;;
462;SDS011;218;51.902;9.542;2024-02-21T09:56:57;10.70;;;4.30;;
462;SDS011;218;51.902;9.542;2024-02-21T09:59:24;8.10;;;3.70;;
462;SDS011;218;51.902;9.542;2024-02-21T10:01:51;7.33;;;3.87;;
462;SDS011;218;51.902;9.542;2024-02-21T10:04:19;5.57;;;4.10;;
462;SDS011;218;51.902;9.542;2024-02-21T10:06:46;4.77;;;4.27;;
462;SDS011;218;51.902;9.542;2024-02-21T10:09:20;5.97;;;3.87;;
462;SDS011;218;51.902;9.542;2024-02-21T10:11:50;4.27;;;3.80;;
462;SDS011;218;51.902;9.542;2024-02-21T10:14:17;5.53;;;4.20;;
462;SDS011;218;51.902;9.542;2024-02-21T10:16:44;4.03;;;3.47;;
462;SDS011;218;51.902;9.542;2024-02-21T10:19:18;6.50;;;3.80;;
462;SDS011;218;51.902;9.542;2024-02-21T10:21:58;8.53;;;4.40;;
462;SDS011;218;51.902;9.542;2024-02-21T10:24:26;8.23;;;4.07;;
462;SDS011;218;51.902;9.542;2024-02-21T10:26:59;7.20;;;3.97;;
462;SDS011;218;51.902;9.542;2024-02-21T10:29:28;5.43;;;3.40;;
462;SDS011;218;51.902;9.542;2024-02-21T10:32:03;5.90;;;3.07;;
462;SDS011;218;51.902;9.542;2024-02-21T10:34:31;7.23;;;3.73;;
462;SDS011;218;51.902;9.542;2024-02-21T10:36:59;10.50;;;3.67;;
462;SDS011;218;51.902;9.542;2024-02-21T10:39:27;6.03;;;4.47;;
462;SDS011;218;51.902;9.542;2024-02-21T10:41:54;10.77;;;4.70;;
462;SDS011;218;51.902;9.542;2024-02-21T10:44:26;3.50;;;3.20;;
462;SDS011;218;51.902;9.542;2024-02-21T10:46:56;6.17;;;3.53;;
462;SDS011;218;51.902;9.542;2024-02-21T10:49:24;7.83;;;4.90;;
462;SDS011;218;51.902;9.542;2024-02-21T10:51:53;7.93;;;4.13;;
462;SDS011;218;51.902;9.542;2024-02-21T10:54:35;5.00;;;4.20;;
462;SDS011;218;51.902;9.542;2024-02-21T10:57:05;6.90;;;3.27;;
462;SDS011;218;51.902;9.542;2024-02-21T10:59:33;4.77;;;3.67;;
462;SDS011;218;51.902;9.542;2024-02-21T11:02:01;4.87;;;4.20;;
462;SDS011;218;51.902;9.542;2024-02-21T11:04:28;4.60;;;4.00;;
462;SDS011;218;51.902;9.542;2024-02-21T11:06:56;3.80;;;3.50;;
462;SDS011;218;51.902;9.542;2024-02-21T11:09:29;6.83;;;4.97;;
462;SDS011;218;51.902;9.542;2024-02-21T11:11:57;6.67;;;5.83;;
462;SDS011;218;51.902;9.542;2024-02-21T11:14:26;5.77;;;5.27;;
462;SDS011;218;51.902;9.542;2024-02-21T11:16:55;6.07;;;5.57;;
462;SDS011;218;51.902;9.542;2024-02-21T11:19:24;7.90;;;6.63;;
462;SDS011;218;51.902;9.542;2024-02-21T11:21:52;7.37;;;6.70;;
462;SDS011;218;51.902;9.542;2024-02-21T11:24:26;10.00;;;6.70;;
462;SDS011;218;51.902;9.542;2024-02-21T11:26:54;11.93;;;8.40;;
462;SDS011;218;51.902;9.542;2024-02-21T11:29:24;14.70;;;9.27;;
462;SDS011;218;51.902;9.542;2024-02-21T11:31:52;20.73;;;9.43;;
462;SDS011;218;51.902;9.542;2024-02-21T11:34:20;15.93;;;7.77;;
462;SDS011;218;51.902;9.542;2024-02-21T11:36:48;9.13;;;7.27;;
462;SDS011;218;51.902;9.542;2024-02-21T11:39:19;9.10;;;7.50;;
462;SDS011;218;51.902;9.542;2024-02-21T11:41:47;19.17;;;8.33;;
462;SDS011;218;51.902;9.542;2024-02-21T11:44:14;8.67;;;6.60;;
462;SDS011;218;51.902;9.542;2024-02-21T11:46:41;10.93;;;7.43;;
462;SDS011;218;51.902;9.542;2024-02-21T11:49:09;11.43;;;7.00;;
462;SDS011;218;51.902;9.542;2024-02-21T11:51:38;9.23;;;6.90;;
462;SDS011;218;51.902;9.542;2024-02-21T11:54:05;11.53;;;6.87;;
462;SDS011;218;51.902;9.542;2024-02-21T11:56:34;7.10;;;6.40;;
462;SDS011;218;51.902;9.542;2024-02-21T11:59:02;8.07;;;6.70;;
462;SDS011;218;51.902;9.542;2024-02-21T12:01:31;9.87;;;6.00;;
462;SDS011;218;51.902;9.542;2024-02-21T12:03:58;7.00;;;5.93;;
462;SDS011;218;51.902;9.542;2024-02-21T12:06:26;9.87;;;6.30;;
462;SDS011;218;51.902;9.542;2024-02-21T12:08:57;6.40;;;5.73;;
462;SDS011;218;51.902;9.542;2024-02-21T12:11:24;7.07;;;6.37;;
462;SDS011;218;51.902;9.542;2024-02-21T12:14:01;8.50;;;6.30;;
462;SDS011;218;51.902;9.542;2024-02-21T12:16:30;5.47;;;4.97;;
462;SDS011;218;51.902;9.542;2024-02-21T12:18:57;5.83;;;5.10;;
462;SDS011;218;51.902;9.542;2024-02-21T12:21:25;6.20;;;5.07;;
462;SDS011;218;51.902;9.542;2024-02-21T12:23:55;4.57;;;4.17;;
462;SDS011;218;51.902;9.542;2024-02-21T12:26:22;5.80;;;5.33;;
462;SDS011;218;51.902;9.542;2024-02-21T12:28:49;6.03;;;3.87;;
462;SDS011;218;51.902;9.542;2024-02-21T12:31:16;5.63;;;4.90;;
462;SDS011;218;51.902;9.542;2024-02-21T12:33:44;6.50;;;4.20;;
462;SDS011;218;51.902;9.542;2024-02-21T12:36:11;7.10;;;5.37;;
462;SDS011;218;51.902;9.542;2024-02-21T12:38:38;5.77;;;4.57;;
462;SDS011;218;51.902;9.542;2024-02-21T12:41:07;6.63;;;4.40;;
462;SDS011;218;51.902;9.542;2024-02-21T12:43:35;6.60;;;4.93;;
462;SDS011;218;51.902;9.542;2024-02-21T12:46:03;6.22;;;4.00;;
462;SDS011;218;51.902;9.542;2024-02-21T12:48:32;4.95;;;4.00;;
462;SDS011;218;51.902;9.542;2024-02-21T12:50:59;5.13;;;3.80;;
462;SDS011;218;51.902;9.542;2024-02-21T12:53:28;4.57;;;3.97;;
462;SDS011;218;51.902;9.542;2024-02-21T12:55:55;6.35;;;3.75;;
462;SDS011;218;51.902;9.542;2024-02-21T12:58:24;5.35;;;3.40;;
462;SDS011;218;51.902;9.542;2024-02-21T13:00:51;3.97;;;3.57;;
462;SDS011;218;51.902;9.542;2024-02-21T13:03:19;4.80;;;3.88;;
462;SDS011;218;51.902;9.542;2024-02-21T13:05:46;9.00;;;4.80;;
462;SDS011;218;51.902;9.542;2024-02-21T13:08:14;5.40;;;4.50;;
462;SDS011;218;51.902;9.542;2024-02-21T13:10:41;5.10;;;3.60;;
462;SDS011;218;51.902;9.542;2024-02-21T13:13:08;3.93;;;3.43;;
462;SDS011;218;51.902;9.542;2024-02-21T13:15:38;4.43;;;3.42;;
462;SDS011;218;51.902;9.542;2024-02-21T13:18:08;4.50;;;3.67;;
462;SDS011;218;51.902;9.542;2024-02-21T13:20:35;5.80;;;3.50;;
462;SDS011;218;51.902;9.542;2024-02-21T13:23:03;5.65;;;3.13;;
462;SDS011;218;51.902;9.542;2024-02-21T13:25:30;7.40;;;5.05;;
462;SDS011;218;51.902;9.542;2024-02-21T13:27:57;4.68;;;3.00;;
462;SDS011;218;51.902;9.542;2024-02-21T13:30:25;5.97;;;3.93;;
462;SDS011;218;51.902;9.542;2024-02-21T13:32:53;6.40;;;3.95;;
462;SDS011;218;51.902;9.542;2024-02-21T13:35:21;5.40;;;3.60;;
462;SDS011;218;51.902;9.542;2024-02-21T13:37:48;6.22;;;3.42;;
462;SDS011;218;51.902;9.542;2024-02-21T13:40:16;5.07;;;3.72;;
462;SDS011;218;51.902;9.542;2024-02-21T13:42:43;5.13;;;3.58;;
462;SDS011;218;51.902;9.542;2024-02-21T13:45:10;6.70;;;3.90;;
462;SDS011;218;51.902;9.542;2024-02-21T13:47:38;6.18;;;3.40;;
462;SDS011;218;51.902;9.542;2024-02-21T13:50:08;4.90;;;3.28;;
462;SDS011;218;51.902;9.542;2024-02-21T13:52:36;4.20;;;2.80;;
462;SDS011;218;51.902;9.542;2024-02-21T13:55:04;6.47;;;3.40;;
462;SDS011;218;51.902;9.542;2024-02-21T13:57:33;4.07;;;3.05;;
462;SDS011;218;51.902;9.542;2024-02-21T14:00:01;5.65;;;3.40;;
462;SDS011;218;51.902;9.542;2024-02-21T14:02:30;4.95;;;2.80;;
462;SDS011;218;51.902;9.542;2024-02-21T14:04:57;3.53;;;2.90;;
462;SDS011;218;51.902;9.542;2024-02-21T14:07:26;4.10;;;2.97;;
462;SDS011;218;51.902;9.542;2024-02-21T14:09:54;4.40;;;3.03;;
462;SDS011;218;51.902;9.542;2024-02-21T14:12:21;4.70;;;2.90;;
462;SDS011;218;51.902;9.542;2024-02-21T14:14:48;6.10;;;4.00;;
462;SDS011;218;51.902;9.542;2024-02-21T14:17:17;4.18;;;3.00;;
462;SDS011;218;51.902;9.542;2024-02-21T14:19:45;5.23;;;3.20;;
462;SDS011;218;51.902;9.542;2024-02-21T14:22:12;3.30;;;2.83;;
462;SDS011;218;51.902;9.542;2024-02-21T14:24:41;6.30;;;3.15;;
462;SDS011;218;51.902;9.542;2024-02-21T14:27:08;6.05;;;3.03;;
462;SDS011;218;51.902;9.542;2024-02-21T14:29:35;3.40;;;3.10;;
462;SDS011;218;51.902;9.542;2024-02-21T14:32:03;3.47;;;3.17;;
462;SDS011;218;51.902;9.542;2024-02-21T14:34:31;3.00;;;2.38;;
462;SDS011;218;51.902;9.542;2024-02-21T14:36:58;4.05;;;2.45;;
462;SDS011;218;51.902;9.542;2024-02-21T14:39:25;4.47;;;2.60;;
462;SDS011;218;51.902;9.542;2024-02-21T14:41:54;5.50;;;3.20;;
462;SDS011;218;51.902;9.542;2024-02-21T14:44:22;4.13;;;2.73;;
462;SDS011;218;51.902;9.542;2024-02-21T14:46:49;4.00;;;2.50;;
462;SDS011;218;51.902;9.542;2024-02-21T14:49:17;4.72;;;3.17;;
462;SDS011;218;51.902;9.542;2024-02-21T14:51:45;5.63;;;2.67;;
462;SDS011;218;51.902;9.542;2024-02-21T14:54:12;3.17;;;2.88;;
462;SDS011;218;51.902;9.542;2024-02-21T14:56:39;5.38;;;3.20;;
462;SDS011;218;51.902;9.542;2024-02-21T14:59:08;5.22;;;3.15;;
462;SDS011;218;51.902;9.542;2024-02-21T15:01:35;4.72;;;3.47;;
462;SDS011;218;51.902;9.542;2024-02-21T15:04:04;8.80;;;3.90;;
462;SDS011;218;51.902;9.542;2024-02-21T15:06:32;3.30;;;2.90;;
462;SDS011;218;51.902;9.542;2024-02-21T15:09:01;5.20;;;3.50;;
462;SDS011;218;51.902;9.542;2024-02-21T15:11:28;4.90;;;3.40;;
462;SDS011;218;51.902;9.542;2024-02-21T15:13:56;10.48;;;3.80;;
462;SDS011;218;51.902;9.542;2024-02-21T15:16:24;6.80;;;4.03;;
462;SDS011;218;51.902;9.542;2024-02-21T15:18:51;4.27;;;3.40;;
462;SDS011;218;51.902;9.542;2024-02-21T15:21:19;6.47;;;3.87;;
462;SDS011;218;51.902;9.542;2024-02-21T15:23:47;4.30;;;3.90;;
462;SDS011;218;51.902;9.542;2024-02-21T15:26:14;4.47;;;3.30;;
462;SDS011;218;51.902;9.542;2024-02-21T15:28:42;6.93;;;3.30;;
462;SDS011;218;51.902;9.542;2024-02-21T15:31:18;5.53;;;3.00;;
462;SDS011;218;51.902;9.542;2024-02-21T15:33:48;8.48;;;3.17;;
462;SDS011;218;51.902;9.542;2024-02-21T15:36:15;5.77;;;3.03;;
462;SDS011;218;51.902;9.542;2024-02-21T15:38:43;5.93;;;3.10;;
462;SDS011;218;51.902;9.542;2024-02-21T15:41:11;4.40;;;3.17;;
462;SDS011;218;51.902;9.542;2024-02-21T15:43:39;6.87;;;3.77;;
462;SDS011;218;51.902;9.542;2024-02-21T15:46:06;3.50;;;2.97;;
462;SDS011;218;51.902;9.542;2024-02-21T15:48:33;5.10;;;2.90;;